createdAt,value
2023-02-23T00:03:07.319Z,100.00
2023-02-23T00:08:12.259Z,100.00
2023-02-23T00:13:17.075Z,100.00
2023-02-23T00:18:24.530Z,100.00
2023-02-23T00:23:30.097Z,100.00
2023-02-23T00:28:35.144Z,100.00
2023-02-23T00:33:43.849Z,100.00
2023-02-23T00:38:48.947Z,100.00
2023-02-23T00:43:55.175Z,100.00
2023-02-23T00:49:05.221Z,100.00
2023-02-23T00:54:10.965Z,100.00
2023-02-23T00:59:16.311Z,100.00
2023-02-23T01:04:23.786Z,100.00
2023-02-23T01:09:30.785Z,100.00
2023-02-23T01:14:36.105Z,100.00
2023-02-23T01:19:47.824Z,100.00
2023-02-23T01:24:52.870Z,100.00
2023-02-23T01:29:57.757Z,100.00
2023-02-23T01:35:05.692Z,100.00
2023-02-23T01:40:15.874Z,100.00
2023-02-23T01:45:27.243Z,100.00
2023-02-23T01:50:41.907Z,100.00
2023-02-23T01:55:49.919Z,100.00
2023-02-23T02:00:57.932Z,100.00
2023-02-23T02:06:09.916Z,100.00
2023-02-23T02:11:26.269Z,100.00
2023-02-23T02:17:03.705Z,100.00
2023-02-23T02:22:26.626Z,100.00
2023-02-23T02:27:50.449Z,100.00
2023-02-23T02:33:38.004Z,100.00
2023-02-23T02:38:56.660Z,100.00
2023-02-23T02:44:10.240Z,100.00
2023-02-23T02:49:22.973Z,100.00
2023-02-23T02:54:37.034Z,100.00
2023-02-23T03:00:02.875Z,100.00
2023-02-23T03:05:29.263Z,100.00
2023-02-23T03:10:57.143Z,100.00
2023-02-23T03:16:23.955Z,100.00
2023-02-23T03:21:47.141Z,100.00
2023-02-23T03:27:11.182Z,100.00
2023-02-23T03:32:34.133Z,100.00
2023-02-23T03:37:57.697Z,100.00
2023-02-23T03:43:21.050Z,100.00
2023-02-23T03:48:40.399Z,100.00
2023-02-23T03:54:05.749Z,100.00
2023-02-23T03:59:27.566Z,100.00
2023-02-23T04:04:46.787Z,100.00
2023-02-23T04:10:04.693Z,100.00
2023-02-23T04:15:15.255Z,100.00
2023-02-23T04:20:20.190Z,100.00
2023-02-23T04:25:26.925Z,100.00
2023-02-23T04:30:34.714Z,100.00
2023-02-23T04:35:40.242Z,100.00
2023-02-23T04:40:45.413Z,100.00
2023-02-23T04:45:53.111Z,100.00
2023-02-23T04:50:58.170Z,100.00
2023-02-23T04:56:03.007Z,100.00
2023-02-23T05:01:12.438Z,100.00
2023-02-23T05:06:17.372Z,100.00
2023-02-23T05:11:22.307Z,100.00
2023-02-23T05:16:29.819Z,100.00
2023-02-23T05:21:34.841Z,100.00
2023-02-23T05:26:40.051Z,100.00
2023-02-23T05:31:48.638Z,100.00
2023-02-23T05:36:54.296Z,100.00
2023-02-23T05:41:59.214Z,100.00
2023-02-23T05:47:06.982Z,100.00
2023-02-23T05:52:12.004Z,100.00
2023-02-23T05:57:17.105Z,100.00
2023-02-23T06:02:24.606Z,100.00
2023-02-23T06:07:29.655Z,100.00
2023-02-23T06:12:34.595Z,100.00
2023-02-23T06:17:42.094Z,100.00
2023-02-23T06:22:48.251Z,100.00
2023-02-23T06:27:53.744Z,100.00
2023-02-23T06:33:01.322Z,100.00
2023-02-23T06:38:07.494Z,100.00
2023-02-23T06:43:12.675Z,100.00
2023-02-23T06:48:20.397Z,100.00
2023-02-23T06:53:28.972Z,100.00
2023-02-23T06:58:34.026Z,100.00
2023-02-23T07:03:44.600Z,100.00
2023-02-23T07:08:51.313Z,100.00
2023-02-23T07:13:56.368Z,100.00
2023-02-23T07:19:03.922Z,100.00
2023-02-23T07:24:09.402Z,100.00
2023-02-23T07:29:16.313Z,100.00
2023-02-23T07:34:23.888Z,100.00
2023-02-23T07:39:29.049Z,100.00
2023-02-23T07:44:34.400Z,100.00
2023-02-23T07:49:42.602Z,100.00
2023-02-23T07:54:47.792Z,100.00
2023-02-23T07:59:55.861Z,100.00
2023-02-23T08:05:03.413Z,100.00
2023-02-23T08:10:10.788Z,100.00
2023-02-23T08:15:15.700Z,100.00
2023-02-23T08:20:23.374Z,100.00
2023-02-23T08:25:29.350Z,100.00
2023-02-23T08:30:34.448Z,100.00
2023-02-23T08:35:42.147Z,100.00
2023-02-23T08:40:47.036Z,100.00
2023-02-23T08:45:52.006Z,100.00
2023-02-23T08:51:03.746Z,100.00
2023-02-23T08:56:10.884Z,100.00
2023-02-23T09:01:22.186Z,100.00
2023-02-23T09:06:35.869Z,100.00
2023-02-23T09:11:41.630Z,100.00
2023-02-23T09:16:47.414Z,100.00
2023-02-23T09:21:56.602Z,100.00
2023-02-23T09:27:01.547Z,100.00
2023-02-23T09:32:08.571Z,100.00
2023-02-23T09:37:19.467Z,100.00
2023-02-23T09:42:41.185Z,100.00
2023-02-23T09:48:04.637Z,100.00
2023-02-23T09:53:43.129Z,100.00
2023-02-23T09:58:48.485Z,100.00
2023-02-23T10:03:58.328Z,99.47
2023-02-23T10:09:19.627Z,99.91
2023-02-23T10:14:43.008Z,99.09
2023-02-23T10:19:56.736Z,98.36
2023-02-23T10:25:12.494Z,93.13
2023-02-23T10:30:22.390Z,87.80
2023-02-23T10:35:29.832Z,86.45
2023-02-23T10:40:39.904Z,85.97
2023-02-23T10:45:49.642Z,84.77
2023-02-23T10:51:00.361Z,86.92
2023-02-23T10:56:13.742Z,88.20
2023-02-23T11:01:22.976Z,87.73
2023-02-23T11:06:34.149Z,88.34
2023-02-23T11:11:42.014Z,88.02
2023-02-23T11:16:49.665Z,86.88
2023-02-23T11:21:56.189Z,88.52
2023-02-23T11:27:06.884Z,84.65
2023-02-23T11:32:16.526Z,83.52
2023-02-23T11:37:30.051Z,86.86
2023-02-23T11:42:37.774Z,84.09
2023-02-23T11:47:44.543Z,85.45
2023-02-23T11:52:49.798Z,84.59
2023-02-23T11:58:11.891Z,81.79
2023-02-23T12:03:26.112Z,80.23
2023-02-23T12:08:48.961Z,78.41
2023-02-23T12:14:06.022Z,79.63
2023-02-23T12:19:26.308Z,82.49
2023-02-23T12:24:47.688Z,82.27
2023-02-23T12:30:09.156Z,84.18
2023-02-23T12:35:20.413Z,82.96
2023-02-23T12:40:30.279Z,84.80
2023-02-23T12:45:45.131Z,83.61
2023-02-23T12:50:56.377Z,81.95
2023-02-23T12:56:15.653Z,83.04
2023-02-23T13:01:27.222Z,84.62
2023-02-23T13:06:42.887Z,84.86
2023-02-23T13:12:24.497Z,82.26
2023-02-23T13:17:40.122Z,84.50
2023-02-23T13:22:52.368Z,84.25
2023-02-23T13:28:02.910Z,82.81
2023-02-23T13:33:22.132Z,80.74
2023-02-23T13:38:37.193Z,83.43
2023-02-23T13:43:52.654Z,82.09
2023-02-23T13:49:05.594Z,80.67
2023-02-23T13:54:27.858Z,81.79
2023-02-23T13:59:36.815Z,83.59
2023-02-23T14:04:46.345Z,84.10
2023-02-23T14:09:57.497Z,84.08
2023-02-23T14:15:43.043Z,85.76
2023-02-23T14:21:01.314Z,86.58
2023-02-23T14:26:40.168Z,85.78
2023-02-23T14:31:58.239Z,86.69
2023-02-23T14:37:32.592Z,87.07
2023-02-23T14:42:43.486Z,87.57
2023-02-23T14:47:53.946Z,85.69
2023-02-23T14:53:04.982Z,88.00
2023-02-23T14:58:25.619Z,86.27
2023-02-23T15:03:30.724Z,91.09
2023-02-23T15:08:43.317Z,98.72
2023-02-23T15:13:52.774Z,100.00
2023-02-23T15:19:02.442Z,100.00
2023-02-23T15:24:16.656Z,100.00
2023-02-23T15:29:23.942Z,100.00
2023-02-23T15:34:32.345Z,100.00
2023-02-23T15:39:46.516Z,100.00
2023-02-23T15:45:02.667Z,100.00
2023-02-23T15:50:20.126Z,100.00
2023-02-23T15:55:39.561Z,100.00
2023-02-23T16:00:49.398Z,100.00
2023-02-23T16:06:01.740Z,100.00
2023-02-23T16:11:14.044Z,100.00
2023-02-23T16:16:25.614Z,100.00
2023-02-23T16:21:34.863Z,100.00
2023-02-23T16:26:50.487Z,100.00
2023-02-23T16:32:00.422Z,100.00
2023-02-23T16:37:07.481Z,100.00
2023-02-23T16:42:25.554Z,100.00
2023-02-23T16:47:39.088Z,100.00
2023-02-23T16:52:46.121Z,100.00
2023-02-23T16:57:55.001Z,100.00
2023-02-23T17:03:05.677Z,100.00
2023-02-23T17:08:10.643Z,100.00
2023-02-23T17:13:22.066Z,100.00
2023-02-23T17:18:28.893Z,100.00
2023-02-23T17:23:48.251Z,100.00
2023-02-23T17:28:56.736Z,100.00
2023-02-23T17:34:02.004Z,100.00
2023-02-23T17:39:09.584Z,100.00
2023-02-23T17:44:17.156Z,100.00
2023-02-23T17:49:22.042Z,100.00
2023-02-23T17:54:26.950Z,100.00
2023-02-23T17:59:34.445Z,100.00
2023-02-23T18:04:39.271Z,100.00
2023-02-23T18:09:44.572Z,100.00
2023-02-23T18:14:52.229Z,100.00
2023-02-23T18:19:57.210Z,100.00
2023-02-23T18:25:05.752Z,100.00
2023-02-23T18:30:17.261Z,100.00
2023-02-23T18:35:22.223Z,100.00
2023-02-23T18:40:27.468Z,100.00
2023-02-23T18:45:36.821Z,100.00
2023-02-23T18:50:41.800Z,100.00
2023-02-23T18:55:47.355Z,100.00
2023-02-23T19:00:55.223Z,100.00
2023-02-23T19:06:01.061Z,100.00
2023-02-23T19:11:06.167Z,100.00
2023-02-23T19:16:14.838Z,100.00
2023-02-23T19:21:24.505Z,100.00
2023-02-23T19:26:36.370Z,100.00
2023-02-23T19:31:47.811Z,100.00
2023-02-23T19:36:52.995Z,100.00
2023-02-23T19:41:58.246Z,100.00
2023-02-23T19:47:06.678Z,100.00
2023-02-23T19:52:14.467Z,100.00
2023-02-23T19:57:21.121Z,100.00
2023-02-23T20:02:29.261Z,100.00
2023-02-23T20:07:34.411Z,100.00
2023-02-23T20:12:40.011Z,100.00
2023-02-23T20:17:47.711Z,100.00
2023-02-23T20:22:55.821Z,100.00
2023-02-23T20:28:01.519Z,100.00
2023-02-23T20:33:10.897Z,100.00
2023-02-23T20:38:16.396Z,100.00
2023-02-23T20:43:22.573Z,100.00
2023-02-23T20:48:32.823Z,100.00
2023-02-23T20:53:38.459Z,100.00
2023-02-23T20:58:43.937Z,100.00
2023-02-23T21:03:52.510Z,100.00
2023-02-23T21:09:03.975Z,100.00
2023-02-23T21:14:09.043Z,100.00
2023-02-23T21:19:17.891Z,100.00
2023-02-23T21:24:23.043Z,100.00
2023-02-23T21:29:28.144Z,100.00
2023-02-23T21:34:36.043Z,100.00
2023-02-23T21:39:40.991Z,100.00
2023-02-23T21:44:46.634Z,100.00
2023-02-23T21:49:54.449Z,100.00
2023-02-23T21:55:01.110Z,100.00
2023-02-23T22:00:09.665Z,100.00
2023-02-23T22:05:22.279Z,100.00
2023-02-23T22:10:28.045Z,100.00
2023-02-23T22:15:34.044Z,100.00
2023-02-23T22:20:44.377Z,100.00
2023-02-23T22:25:49.478Z,100.00
2023-02-23T22:30:55.444Z,100.00
2023-02-23T22:36:04.451Z,100.00
2023-02-23T22:41:10.356Z,100.00
2023-02-23T22:46:17.081Z,100.00
2023-02-23T22:51:24.686Z,100.00
2023-02-23T22:56:29.754Z,100.00
2023-02-23T23:01:35.973Z,100.00
2023-02-23T23:06:46.364Z,100.00
2023-02-23T23:11:51.859Z,100.00
2023-02-23T23:16:57.079Z,100.00
2023-02-23T23:22:04.976Z,100.00
2023-02-23T23:27:11.904Z,100.00
2023-02-23T23:32:18.768Z,100.00
2023-02-23T23:37:29.187Z,100.00
2023-02-23T23:42:34.945Z,100.00
2023-02-23T23:47:39.936Z,100.00
2023-02-23T23:52:50.553Z,100.00
2023-02-23T23:57:55.568Z,100.00
